createdAt,value
2019-02-25T18:07:54.887Z,6.07
2019-02-25T18:10:25.004Z,7.30
2019-02-25T18:12:54.559Z,6.60
2019-02-25T18:15:30.626Z,6.53
2019-02-25T18:17:59.475Z,6.75
2019-02-25T18:20:28.421Z,6.27
2019-02-25T18:22:59.058Z,6.20
2019-02-25T18:25:27.656Z,6.30
2019-02-25T18:27:56.080Z,6.70
2019-02-25T18:30:28.419Z,6.43
2019-02-25T18:33:00.125Z,6.35
2019-02-25T18:35:27.557Z,7.03
2019-02-25T18:38:00.257Z,6.83
2019-02-25T18:40:28.414Z,7.20
2019-02-25T18:43:07.279Z,7.63
2019-02-25T18:45:43.139Z,7.67
2019-02-25T18:48:08.318Z,7.35
2019-02-25T18:50:39.128Z,7.67
2019-02-25T18:53:07.540Z,8.13
2019-02-25T18:55:36.044Z,7.43
2019-02-25T18:58:10.155Z,7.40
2019-02-25T19:00:41.901Z,7.95
2019-02-25T19:03:12.188Z,8.47
2019-02-25T19:05:41.301Z,8.80
2019-02-25T19:08:16.857Z,8.60
2019-02-25T19:10:47.512Z,9.87
2019-02-25T19:13:15.911Z,9.88
2019-02-25T19:15:46.053Z,10.93
2019-02-25T19:18:17.305Z,10.18
2019-02-25T19:20:47.639Z,9.90
2019-02-25T19:23:19.176Z,9.85
2019-02-25T19:25:48.670Z,11.40
2019-02-25T19:28:19.006Z,10.13
2019-02-25T19:30:47.057Z,10.43
2019-02-25T19:33:19.299Z,10.50
2019-02-25T19:35:45.522Z,11.20
2019-02-25T19:38:15.228Z,10.67
2019-02-25T19:40:45.808Z,11.35
2019-02-25T19:43:17.261Z,10.20
2019-02-25T19:45:45.949Z,12.50
2019-02-25T19:48:14.367Z,14.20
2019-02-25T19:50:50.519Z,15.18
2019-02-25T19:53:15.190Z,14.33
2019-02-25T19:55:43.911Z,14.03
2019-02-25T19:58:12.931Z,13.32
2019-02-25T20:00:41.401Z,13.85
2019-02-25T20:03:09.825Z,12.47
2019-02-25T20:05:41.120Z,13.90
2019-02-25T20:08:08.397Z,12.30
2019-02-25T20:10:36.793Z,12.30
2019-02-25T20:13:08.517Z,12.03
2019-02-25T20:15:39.616Z,11.47
2019-02-25T20:18:07.197Z,10.87
2019-02-25T20:20:36.541Z,11.50
2019-02-25T20:23:06.763Z,10.85
2019-02-25T20:25:35.990Z,11.50
2019-02-25T20:28:04.771Z,11.20
2019-02-25T20:30:33.158Z,11.30
2019-02-25T20:33:03.303Z,12.63
2019-02-25T20:35:31.563Z,13.20
2019-02-25T20:38:00.487Z,12.40
2019-02-25T20:40:30.612Z,12.10
2019-02-25T20:44:08.475Z,13.17
2019-02-25T20:46:38.560Z,13.00
2019-02-25T20:49:07.050Z,13.37
2019-02-25T20:52:38.179Z,13.00
2019-02-25T20:55:10.415Z,12.73
2019-02-25T20:57:38.503Z,12.03
2019-02-25T21:00:13.150Z,11.70
2019-02-25T21:02:41.534Z,11.37
2019-02-25T21:05:11.980Z,11.47
2019-02-25T21:07:40.795Z,11.15
2019-02-25T21:10:15.641Z,11.60
2019-02-25T21:12:45.634Z,12.77
2019-02-25T21:15:22.118Z,12.20
2019-02-25T21:17:51.927Z,12.33
2019-02-25T21:20:21.422Z,13.25
2019-02-25T21:22:52.918Z,12.30
2019-02-25T21:25:24.499Z,13.73
2019-02-25T21:27:50.901Z,12.73
2019-02-25T21:30:21.545Z,11.70
2019-02-25T21:32:51.751Z,12.40
2019-02-25T21:35:23.491Z,12.03
2019-02-25T21:37:52.334Z,13.27
2019-02-25T21:40:26.507Z,11.80
2019-02-25T21:42:53.904Z,12.53
2019-02-25T21:45:25.107Z,12.33
2019-02-25T21:47:54.607Z,11.12
2019-02-25T21:50:26.271Z,11.75
2019-02-25T21:52:53.646Z,11.50
2019-02-25T21:55:23.754Z,11.20
2019-02-25T21:57:54.408Z,12.00
2019-02-25T22:00:24.216Z,11.60
2019-02-25T22:02:52.673Z,11.47
2019-02-25T22:05:23.222Z,11.25
2019-02-25T22:07:54.267Z,10.93
2019-02-25T22:10:21.267Z,11.60
2019-02-25T22:13:13.403Z,11.47
2019-02-25T22:15:42.910Z,11.90
2019-02-25T22:18:12.180Z,11.33
2019-02-25T22:20:42.766Z,11.60
2019-02-25T22:23:11.489Z,12.07
2019-02-25T22:25:42.522Z,12.53
2019-02-25T22:28:10.831Z,12.68
2019-02-25T22:30:39.229Z,12.87
2019-02-25T22:33:19.471Z,12.68
2019-02-25T22:35:39.900Z,12.83
2019-02-25T22:38:07.733Z,12.43
2019-02-25T22:40:36.657Z,13.80
2019-02-25T22:43:06.068Z,14.57
2019-02-25T22:45:35.948Z,14.27
2019-02-25T22:48:05.207Z,14.87
2019-02-25T22:50:35.542Z,14.57
2019-02-25T22:53:06.787Z,13.83
2019-02-25T22:55:36.814Z,13.90
2019-02-25T22:58:06.628Z,14.13
2019-02-25T23:00:41.598Z,13.62
2019-02-25T23:03:11.083Z,13.93
2019-02-25T23:05:43.014Z,13.20
2019-02-25T23:08:12.789Z,14.83
2019-02-25T23:10:41.963Z,12.93
2019-02-25T23:13:09.436Z,14.13
2019-02-25T23:15:37.756Z,14.80
2019-02-25T23:18:10.064Z,14.30
2019-02-25T23:20:36.173Z,14.93
2019-02-25T23:23:06.667Z,14.75
2019-02-25T23:25:35.409Z,14.35
2019-02-25T23:28:07.208Z,15.23
2019-02-25T23:30:34.415Z,15.05
2019-02-25T23:33:02.764Z,14.50
2019-02-25T23:35:32.704Z,13.57
2019-02-25T23:38:01.105Z,14.43
2019-02-25T23:40:31.295Z,13.93
2019-02-25T23:43:02.950Z,13.80
2019-02-25T23:45:29.435Z,14.70
2019-02-25T23:47:59.698Z,15.25
2019-02-25T23:50:29.660Z,15.40
2019-02-25T23:52:58.069Z,14.50
2019-02-25T23:55:27.769Z,14.73
2019-02-25T23:57:56.425Z,15.95
